createdAt,value
2017-12-12T00:01:42.818Z,94.13
2017-12-12T00:04:10.230Z,94.26
2017-12-12T00:06:37.650Z,94.87
2017-12-12T00:09:05.058Z,95.24
2017-12-12T00:11:32.489Z,94.46
2017-12-12T00:13:59.901Z,94.55
2017-12-12T00:16:27.305Z,94.70
2017-12-12T00:18:54.722Z,94.80
2017-12-12T00:21:22.135Z,94.14
2017-12-12T00:23:49.547Z,93.58
2017-12-12T00:26:16.961Z,93.19
2017-12-12T00:28:44.390Z,92.99
2017-12-12T00:31:11.801Z,92.79
2017-12-12T00:33:39.212Z,92.68
2017-12-12T00:36:06.622Z,92.08
2017-12-12T00:38:34.034Z,91.95
2017-12-12T00:41:01.451Z,91.82
2017-12-12T00:43:28.858Z,91.60
2017-12-12T00:45:56.278Z,91.93
2017-12-12T00:48:23.686Z,92.58
2017-12-12T00:50:51.109Z,93.05
2017-12-12T00:53:18.518Z,93.06
2017-12-12T00:55:45.934Z,93.24
2017-12-12T00:58:13.350Z,93.18
2017-12-12T01:00:40.775Z,93.39
2017-12-12T01:03:08.195Z,93.45
2017-12-12T01:05:35.603Z,93.06
2017-12-12T01:08:03.022Z,93.07
2017-12-12T01:10:30.434Z,93.22
2017-12-12T01:12:57.905Z,93.28
2017-12-12T01:15:25.305Z,93.45
2017-12-12T01:17:52.726Z,93.30
2017-12-12T01:20:20.137Z,93.45
2017-12-12T01:22:47.547Z,93.01
2017-12-12T01:25:14.970Z,93.06
2017-12-12T01:27:42.382Z,93.47
2017-12-12T01:30:09.805Z,93.05
2017-12-12T01:32:37.214Z,93.45
2017-12-12T01:35:04.633Z,93.38
2017-12-12T01:37:32.058Z,93.55
2017-12-12T01:39:59.461Z,93.78
2017-12-12T01:42:26.882Z,94.13
2017-12-12T01:44:54.299Z,94.75
2017-12-12T01:47:21.722Z,94.99
2017-12-12T01:49:49.175Z,95.41
2017-12-12T01:52:16.598Z,95.26
2017-12-12T01:54:44.006Z,95.35
2017-12-12T01:57:11.448Z,95.87
2017-12-12T01:59:38.853Z,95.51
2017-12-12T02:02:06.266Z,95.39
2017-12-12T02:04:33.679Z,95.53
2017-12-12T02:07:01.094Z,95.50
2017-12-12T02:09:28.513Z,95.28
2017-12-12T02:11:55.926Z,95.33
2017-12-12T02:14:23.342Z,95.40
2017-12-12T02:16:50.758Z,95.68
2017-12-12T02:19:18.185Z,95.85
2017-12-12T02:21:45.607Z,95.70
2017-12-12T02:24:13.021Z,95.77
2017-12-12T02:26:40.445Z,95.50
2017-12-12T02:29:07.856Z,95.26
2017-12-12T02:31:35.267Z,95.42
2017-12-12T02:34:02.675Z,95.33
2017-12-12T02:36:30.098Z,95.08
2017-12-12T02:38:57.519Z,95.15
2017-12-12T02:41:24.950Z,95.43
2017-12-12T02:43:52.383Z,95.50
2017-12-12T02:46:19.791Z,95.18
2017-12-12T02:48:47.211Z,94.90
2017-12-12T02:51:14.629Z,95.15
2017-12-12T02:53:42.042Z,95.15
2017-12-12T02:56:09.458Z,95.38
2017-12-12T02:58:36.877Z,95.33
2017-12-12T03:01:04.285Z,95.53
2017-12-12T03:03:31.698Z,95.31
2017-12-12T03:05:59.118Z,95.35
2017-12-12T03:08:26.535Z,95.37
2017-12-12T03:10:53.946Z,95.54
2017-12-12T03:13:21.357Z,95.52
2017-12-12T03:15:48.790Z,95.71
2017-12-12T03:18:16.202Z,95.70
2017-12-12T03:20:43.617Z,95.73
2017-12-12T03:23:11.029Z,95.59
2017-12-12T03:25:38.438Z,95.75
2017-12-12T03:28:05.858Z,95.89
2017-12-12T03:30:33.270Z,96.09
2017-12-12T03:33:00.697Z,95.69
2017-12-12T03:38:00.796Z,95.61
2017-12-12T03:40:28.206Z,95.73
2017-12-12T03:42:55.609Z,95.58
2017-12-12T03:45:23.023Z,95.46
2017-12-12T03:47:50.433Z,95.64
2017-12-12T03:50:17.849Z,95.40
2017-12-12T03:52:45.259Z,95.66
2017-12-12T03:55:12.681Z,95.50
2017-12-12T03:57:40.090Z,95.59
2017-12-12T04:00:07.523Z,95.11
2017-12-12T04:02:34.938Z,95.41
2017-12-12T04:05:02.351Z,95.20
2017-12-12T04:07:29.774Z,95.36
2017-12-12T04:09:57.187Z,95.02
2017-12-12T04:12:24.613Z,95.02
2017-12-12T04:14:52.024Z,95.36
2017-12-12T04:17:19.434Z,95.30
2017-12-12T04:19:46.854Z,95.14
2017-12-12T04:22:14.266Z,95.22
2017-12-12T04:24:41.687Z,95.41
2017-12-12T04:27:09.095Z,95.83
2017-12-12T04:29:36.516Z,96.39
2017-12-12T04:32:03.926Z,96.61
2017-12-12T04:34:31.341Z,96.95
2017-12-12T04:36:58.757Z,96.91
2017-12-12T04:39:26.186Z,96.66
2017-12-12T04:41:53.600Z,96.63
2017-12-12T04:44:21.010Z,96.74
2017-12-12T04:46:48.430Z,96.92
2017-12-12T04:49:15.841Z,96.74
2017-12-12T04:51:43.253Z,96.44
2017-12-12T04:54:10.675Z,96.29
2017-12-12T04:56:38.086Z,96.06
2017-12-12T04:59:05.510Z,96.06
2017-12-12T05:01:32.927Z,96.06
2017-12-12T05:04:00.365Z,95.43
2017-12-12T05:06:27.782Z,95.68
2017-12-12T05:08:55.194Z,95.48
2017-12-12T05:11:22.609Z,95.22
2017-12-12T05:13:50.027Z,95.38
2017-12-12T05:16:17.489Z,94.76
2017-12-12T05:18:44.905Z,94.91
2017-12-12T05:21:12.329Z,94.81
2017-12-12T05:23:39.766Z,94.53
2017-12-12T05:26:07.174Z,94.39
2017-12-12T05:28:34.599Z,94.49
2017-12-12T05:31:02.038Z,94.34
2017-12-12T05:33:29.462Z,94.40
2017-12-12T05:35:56.886Z,94.40
2017-12-12T05:38:24.315Z,94.45
2017-12-12T05:40:51.727Z,94.48
2017-12-12T05:43:19.142Z,94.19
2017-12-12T05:45:46.575Z,94.52
2017-12-12T05:48:13.989Z,94.75
2017-12-12T05:50:41.407Z,94.50
2017-12-12T05:53:08.817Z,94.39
2017-12-12T05:55:36.256Z,94.01
2017-12-12T05:58:03.655Z,94.25
2017-12-12T06:00:31.062Z,94.13
2017-12-12T06:02:58.483Z,94.06
2017-12-12T06:05:25.893Z,94.00
2017-12-12T06:07:53.309Z,94.15
2017-12-12T06:10:20.719Z,94.02
2017-12-12T06:12:48.139Z,94.42
2017-12-12T06:15:15.545Z,94.46
2017-12-12T06:17:42.954Z,94.67
2017-12-12T06:20:10.370Z,94.24
2017-12-12T06:22:37.781Z,94.42
2017-12-12T06:25:05.203Z,93.78
2017-12-12T06:27:32.609Z,93.81
2017-12-12T06:30:00.034Z,93.96
2017-12-12T06:32:27.453Z,93.91
2017-12-12T06:34:54.875Z,93.75
2017-12-12T06:37:22.338Z,93.62
2017-12-12T06:39:49.737Z,93.58
2017-12-12T06:42:17.162Z,93.88
2017-12-12T06:44:44.570Z,93.91
2017-12-12T06:47:11.989Z,93.88
2017-12-12T06:49:39.401Z,93.42
2017-12-12T06:52:06.818Z,93.85
2017-12-12T06:54:34.234Z,93.79
2017-12-12T06:57:01.646Z,93.47
2017-12-12T06:59:29.067Z,93.54
2017-12-12T07:01:56.498Z,93.46
2017-12-12T07:04:23.909Z,93.36
2017-12-12T07:06:51.326Z,93.50
2017-12-12T07:09:18.743Z,93.06
2017-12-12T07:11:46.158Z,93.29
2017-12-12T07:14:13.569Z,93.24
2017-12-12T07:16:41.003Z,93.27
2017-12-12T07:19:08.409Z,93.42
2017-12-12T07:21:35.843Z,93.34
2017-12-12T07:24:03.270Z,93.12
2017-12-12T07:26:30.686Z,92.67
2017-12-12T07:28:58.110Z,93.02
2017-12-12T07:31:25.562Z,92.96
2017-12-12T07:33:52.983Z,92.98
2017-12-12T07:36:20.394Z,93.26
2017-12-12T07:38:47.821Z,92.65
2017-12-12T07:41:15.242Z,92.82
2017-12-12T07:43:42.646Z,93.27
2017-12-12T07:46:10.061Z,92.94
2017-12-12T07:48:37.477Z,92.84
2017-12-12T07:51:04.894Z,92.59
2017-12-12T07:53:32.318Z,92.64
2017-12-12T07:55:59.738Z,92.73
2017-12-12T07:58:27.161Z,92.71
2017-12-12T08:00:54.577Z,92.44
2017-12-12T08:03:22.001Z,91.79
2017-12-12T08:05:49.420Z,92.21
2017-12-12T08:08:16.831Z,92.06
2017-12-12T08:10:44.254Z,91.98
2017-12-12T08:13:11.669Z,91.40
2017-12-12T08:15:39.086Z,91.39
2017-12-12T08:18:06.498Z,91.47
2017-12-12T08:20:33.918Z,91.54
2017-12-12T08:23:01.333Z,91.39
2017-12-12T08:25:28.744Z,91.79
2017-12-12T08:27:56.166Z,91.83
2017-12-12T08:30:23.605Z,91.57
2017-12-12T08:32:51.030Z,91.51
2017-12-12T08:35:18.458Z,91.40
2017-12-12T08:37:45.921Z,90.83
2017-12-12T08:40:13.340Z,91.32
2017-12-12T08:42:40.763Z,90.92
2017-12-12T08:45:08.186Z,91.34
2017-12-12T08:47:35.602Z,90.96
2017-12-12T08:50:03.017Z,90.82
2017-12-12T08:52:30.438Z,90.74
2017-12-12T08:54:57.885Z,90.26
2017-12-12T08:57:25.384Z,90.16
2017-12-12T08:59:52.802Z,89.65
2017-12-12T09:02:20.229Z,89.84
2017-12-12T09:04:47.690Z,90.01
2017-12-12T09:07:15.123Z,89.68
2017-12-12T09:09:42.549Z,89.11
2017-12-12T09:12:09.989Z,89.79
2017-12-12T09:14:37.415Z,89.44
2017-12-12T09:17:04.863Z,89.83
2017-12-12T09:19:32.303Z,89.94
2017-12-12T09:21:59.723Z,89.44
2017-12-12T09:24:27.154Z,89.40
2017-12-12T09:26:54.565Z,89.46
2017-12-12T09:29:21.982Z,88.98
2017-12-12T09:31:49.409Z,89.52
2017-12-12T09:34:16.842Z,89.74
2017-12-12T09:36:44.264Z,89.32
2017-12-12T09:39:11.702Z,89.42
2017-12-12T09:41:39.114Z,89.04
2017-12-12T09:44:06.539Z,89.16
2017-12-12T09:46:33.966Z,89.36
2017-12-12T09:49:01.394Z,88.60
2017-12-12T09:51:28.813Z,88.41
2017-12-12T09:53:56.249Z,89.19
2017-12-12T09:56:23.673Z,88.96
2017-12-12T09:58:51.941Z,89.42
2017-12-12T10:01:19.357Z,89.64
2017-12-12T10:03:46.797Z,89.39
2017-12-12T10:06:14.206Z,89.23
2017-12-12T10:08:41.629Z,89.13
2017-12-12T10:11:09.077Z,88.82
2017-12-12T10:13:36.509Z,88.65
2017-12-12T10:16:03.925Z,88.47
2017-12-12T10:18:31.374Z,88.52
2017-12-12T10:20:58.815Z,88.29
2017-12-12T10:23:26.245Z,87.77
2017-12-12T10:25:53.674Z,87.61
2017-12-12T10:28:21.090Z,87.92
2017-12-12T10:30:48.517Z,87.28
2017-12-12T10:33:15.933Z,87.82
2017-12-12T10:35:43.351Z,88.44
2017-12-12T10:38:10.770Z,87.94
2017-12-12T10:40:38.200Z,87.84
2017-12-12T10:43:05.622Z,87.94
2017-12-12T10:45:33.022Z,87.67
2017-12-12T10:48:00.457Z,87.58
2017-12-12T10:50:27.917Z,87.98
2017-12-12T10:52:55.289Z,87.76
2017-12-12T10:55:22.713Z,87.90
2017-12-12T10:57:50.136Z,87.52
2017-12-12T11:00:17.550Z,87.46
2017-12-12T11:02:44.958Z,87.32
2017-12-12T11:05:12.392Z,86.92
2017-12-12T11:07:39.806Z,86.42
2017-12-12T11:10:07.219Z,86.43
2017-12-12T11:12:34.638Z,86.76
2017-12-12T11:15:02.054Z,86.58
2017-12-12T11:17:29.474Z,86.88
2017-12-12T11:19:56.890Z,87.25
2017-12-12T11:22:24.316Z,87.27
2017-12-12T11:24:51.727Z,86.97
2017-12-12T11:27:19.143Z,87.10
2017-12-12T11:29:46.554Z,87.21
2017-12-12T11:32:13.978Z,87.24
2017-12-12T11:34:41.414Z,87.07
2017-12-12T11:37:08.834Z,86.62
2017-12-12T11:39:36.266Z,86.23
2017-12-12T11:42:03.697Z,86.59
2017-12-12T11:44:31.106Z,85.89
2017-12-12T11:46:58.534Z,86.37
2017-12-12T11:49:25.945Z,86.43
2017-12-12T11:51:53.370Z,86.27
2017-12-12T11:54:20.797Z,85.80
2017-12-12T11:56:48.230Z,85.86
2017-12-12T11:59:15.654Z,86.22
2017-12-12T12:01:43.077Z,86.08
2017-12-12T12:04:10.498Z,85.96
2017-12-12T12:06:37.917Z,86.02
2017-12-12T12:09:05.346Z,86.75
2017-12-12T12:11:32.758Z,87.17
2017-12-12T12:14:00.186Z,87.27
2017-12-12T12:16:27.604Z,86.97
2017-12-12T12:18:55.010Z,87.13
2017-12-12T12:21:22.438Z,87.03
2017-12-12T12:23:49.851Z,86.89
2017-12-12T12:26:17.277Z,86.84
2017-12-12T12:28:44.698Z,86.67
2017-12-12T12:31:12.130Z,85.74
2017-12-12T12:33:39.538Z,85.35
2017-12-12T12:36:06.961Z,85.03
2017-12-12T12:38:34.389Z,83.44
2017-12-12T12:41:01.809Z,84.60
2017-12-12T12:43:29.237Z,84.69
2017-12-12T12:45:56.709Z,84.47
2017-12-12T12:48:24.148Z,84.20
2017-12-12T12:50:51.550Z,84.02
2017-12-12T12:53:18.955Z,82.67
2017-12-12T12:55:46.377Z,82.62
2017-12-12T12:58:13.801Z,83.90
2017-12-12T13:00:41.277Z,83.08
2017-12-12T13:03:08.671Z,82.71
2017-12-12T13:05:36.096Z,82.45
2017-12-12T13:08:03.507Z,81.46
2017-12-12T13:10:30.915Z,82.58
2017-12-12T13:12:58.330Z,82.04
2017-12-12T13:15:25.742Z,82.17
2017-12-12T13:17:53.152Z,82.42
2017-12-12T13:20:20.553Z,82.11
2017-12-12T13:22:47.975Z,81.73
2017-12-12T13:25:15.393Z,82.22
2017-12-12T13:27:42.829Z,82.82
2017-12-12T13:30:10.234Z,82.51
2017-12-12T13:32:37.638Z,82.68
2017-12-12T13:35:05.066Z,82.84
2017-12-12T13:37:32.590Z,83.46
2017-12-12T13:40:01.254Z,83.49
2017-12-12T13:42:28.667Z,83.08
2017-12-12T13:44:56.194Z,83.05
2017-12-12T13:47:23.666Z,83.25
2017-12-12T13:49:51.127Z,82.63
2017-12-12T13:52:18.546Z,83.24
2017-12-12T13:54:46.038Z,83.15
2017-12-12T13:57:13.533Z,83.22
2017-12-12T13:59:40.945Z,83.21
2017-12-12T14:02:08.358Z,83.78
2017-12-12T14:04:35.849Z,83.44
2017-12-12T14:07:04.068Z,83.75
2017-12-12T14:09:31.495Z,83.50
2017-12-12T14:12:00.524Z,84.03
2017-12-12T14:14:30.214Z,83.83
2017-12-12T14:16:58.257Z,84.92
2017-12-12T14:19:26.454Z,85.27
2017-12-12T14:21:54.173Z,85.04
2017-12-12T14:24:22.117Z,84.99
2017-12-12T14:26:49.582Z,85.12
2017-12-12T14:29:16.996Z,85.31
2017-12-12T14:31:44.418Z,85.30
2017-12-12T14:34:11.830Z,85.49
2017-12-12T14:36:39.250Z,85.10
2017-12-12T14:39:06.674Z,84.70
2017-12-12T14:41:34.086Z,84.54
2017-12-12T14:44:01.510Z,84.82
2017-12-12T14:46:28.923Z,84.79
2017-12-12T14:48:56.351Z,84.86
2017-12-12T14:51:23.767Z,84.19
2017-12-12T14:53:51.186Z,84.76
2017-12-12T14:56:18.606Z,84.94
2017-12-12T14:58:46.032Z,84.89
2017-12-12T15:01:13.461Z,85.02
2017-12-12T15:03:40.877Z,84.99
2017-12-12T15:06:08.309Z,85.08
2017-12-12T15:08:35.729Z,85.16
2017-12-12T15:11:03.150Z,84.89
2017-12-12T15:13:30.573Z,84.85
2017-12-12T15:15:57.986Z,84.66
2017-12-12T15:18:25.423Z,84.29
2017-12-12T15:20:52.841Z,84.26
2017-12-12T15:23:20.262Z,84.15
2017-12-12T15:25:47.674Z,84.10
2017-12-12T15:28:15.098Z,84.70
2017-12-12T15:30:42.521Z,84.59
2017-12-12T15:33:09.929Z,84.54
2017-12-12T15:35:37.407Z,84.56
2017-12-12T15:38:05.450Z,84.41
2017-12-12T15:40:35.206Z,84.67
2017-12-12T15:43:04.399Z,84.05
2017-12-12T15:45:31.809Z,84.08
2017-12-12T15:47:59.234Z,83.58
2017-12-12T15:50:26.650Z,83.91
2017-12-12T15:52:54.070Z,84.19
2017-12-12T15:55:21.498Z,83.67
2017-12-12T15:57:48.926Z,83.71
2017-12-12T16:00:16.338Z,83.47
2017-12-12T16:02:43.758Z,83.82
2017-12-12T16:05:11.259Z,83.36
2017-12-12T16:07:38.664Z,83.55
2017-12-12T16:10:06.091Z,83.94
2017-12-12T16:12:33.506Z,83.19
2017-12-12T16:15:00.944Z,83.03
2017-12-12T16:17:28.362Z,82.88
2017-12-12T16:19:55.774Z,82.93
2017-12-12T16:22:23.288Z,82.72
2017-12-12T16:24:50.703Z,82.84
2017-12-12T16:27:18.119Z,82.89
2017-12-12T16:29:45.534Z,82.82
2017-12-12T16:32:12.974Z,83.25
2017-12-12T16:34:40.410Z,83.07
2017-12-12T16:37:08.069Z,83.05
2017-12-12T16:39:35.470Z,82.90
2017-12-12T16:42:02.886Z,82.87
2017-12-12T16:44:30.317Z,82.96
2017-12-12T16:46:57.730Z,83.24
2017-12-12T16:49:25.152Z,83.26
2017-12-12T16:51:52.574Z,83.73
2017-12-12T16:54:20.002Z,84.41
2017-12-12T16:56:47.438Z,84.84
2017-12-12T16:59:14.854Z,84.91
2017-12-12T17:01:42.289Z,85.25
2017-12-12T17:04:09.718Z,84.97
2017-12-12T17:06:38.119Z,85.31
2017-12-12T17:09:05.644Z,85.11
2017-12-12T17:11:33.054Z,85.22
2017-12-12T17:14:00.486Z,85.34
2017-12-12T17:16:27.902Z,84.98
2017-12-12T17:18:55.320Z,85.09
2017-12-12T17:21:22.743Z,84.87
2017-12-12T17:23:50.190Z,84.92
2017-12-12T17:26:17.597Z,84.98
2017-12-12T17:28:45.017Z,84.71
2017-12-12T17:31:12.448Z,84.54
2017-12-12T17:33:39.901Z,84.21
2017-12-12T17:36:07.324Z,83.99
2017-12-12T17:38:34.749Z,84.57
2017-12-12T17:41:02.187Z,84.66
2017-12-12T17:43:29.604Z,84.91
2017-12-12T17:45:57.017Z,84.76
2017-12-12T17:48:24.456Z,84.78
2017-12-12T17:50:51.877Z,84.98
2017-12-12T17:53:30.067Z,84.35
2017-12-12T17:55:57.486Z,84.24
2017-12-12T17:58:24.917Z,83.96
2017-12-12T18:00:52.330Z,84.18
2017-12-12T18:03:22.930Z,84.06
2017-12-12T18:05:50.367Z,84.19
2017-12-12T18:08:17.792Z,84.18
2017-12-12T18:10:45.212Z,84.07
2017-12-12T18:13:12.622Z,84.37
2017-12-12T18:15:40.050Z,84.17
2017-12-12T18:18:08.246Z,84.29
2017-12-12T18:20:35.768Z,84.36
2017-12-12T18:23:03.209Z,84.45
2017-12-12T18:25:30.630Z,84.27
2017-12-12T18:27:58.054Z,84.17
2017-12-12T18:30:25.487Z,84.06
2017-12-12T18:32:52.918Z,84.11
2017-12-12T18:35:20.341Z,84.14
2017-12-12T18:37:47.770Z,83.91
2017-12-12T18:40:15.198Z,83.73
2017-12-12T18:42:42.627Z,83.76
2017-12-12T18:45:10.058Z,83.58
2017-12-12T18:47:37.477Z,83.58
2017-12-12T18:50:04.970Z,83.77
2017-12-12T18:52:32.403Z,83.71
2017-12-12T18:54:59.910Z,83.50
2017-12-12T18:57:27.402Z,83.75
2017-12-12T18:59:54.988Z,83.29
2017-12-12T19:02:23.166Z,83.41
2017-12-12T19:04:50.588Z,83.52
2017-12-12T19:07:18.025Z,83.64
2017-12-12T19:09:45.450Z,83.60
2017-12-12T19:12:12.866Z,83.47
2017-12-12T19:14:40.308Z,83.50
2017-12-12T19:17:07.722Z,83.76
2017-12-12T19:19:35.205Z,83.09
2017-12-12T19:22:02.609Z,83.38
2017-12-12T19:24:30.030Z,84.01
2017-12-12T19:26:57.437Z,83.59
2017-12-12T19:29:24.941Z,83.71
2017-12-12T19:31:52.530Z,83.57
2017-12-12T19:34:20.898Z,83.92
2017-12-12T19:36:49.300Z,83.51
2017-12-12T19:39:16.747Z,83.52
2017-12-12T19:41:44.202Z,83.83
2017-12-12T19:44:11.653Z,83.75
2017-12-12T19:46:40.034Z,83.70
2017-12-12T19:49:07.918Z,83.72
2017-12-12T19:51:35.367Z,83.55
2017-12-12T19:54:02.831Z,83.51
2017-12-12T19:56:30.259Z,83.93
2017-12-12T19:58:57.717Z,83.64
2017-12-12T20:01:25.138Z,83.70
2017-12-12T20:03:53.674Z,83.82
2017-12-12T20:06:21.123Z,83.66
2017-12-12T20:08:48.570Z,84.12
2017-12-12T20:11:16.000Z,83.55
2017-12-12T20:13:43.420Z,83.37
2017-12-12T20:16:10.865Z,83.29
2017-12-12T20:18:38.284Z,83.75
2017-12-12T20:21:05.702Z,83.44
2017-12-12T20:23:33.133Z,83.43
2017-12-12T20:26:00.566Z,83.39
2017-12-12T20:28:27.996Z,83.73
2017-12-12T20:30:55.413Z,83.22
2017-12-12T20:33:24.820Z,83.92
2017-12-12T20:35:52.237Z,84.28
2017-12-12T20:38:19.662Z,83.70
2017-12-12T20:40:47.094Z,83.56
2017-12-12T20:43:14.518Z,83.92
2017-12-12T20:45:42.530Z,84.35
2017-12-12T20:48:09.943Z,84.35
2017-12-12T20:50:37.362Z,83.98
2017-12-12T20:53:04.774Z,84.04
2017-12-12T20:55:32.218Z,83.69
2017-12-12T20:57:59.637Z,83.36
2017-12-12T21:00:27.051Z,83.62
2017-12-12T21:02:54.470Z,83.86
2017-12-12T21:05:21.882Z,84.14
2017-12-12T21:07:49.346Z,84.28
2017-12-12T21:10:16.753Z,84.20
2017-12-12T21:12:44.178Z,83.99
2017-12-12T21:15:11.582Z,83.81
2017-12-12T21:17:39.005Z,82.90
2017-12-12T21:20:06.442Z,82.53
2017-12-12T21:22:33.853Z,81.77
2017-12-12T21:25:01.279Z,82.22
2017-12-12T21:27:28.699Z,82.06
2017-12-12T21:29:56.134Z,82.28
2017-12-12T21:32:23.546Z,82.48
2017-12-12T21:34:50.984Z,81.76
2017-12-12T21:37:18.402Z,81.73
2017-12-12T21:39:45.814Z,81.54
2017-12-12T21:42:13.226Z,81.55
2017-12-12T21:44:40.650Z,81.65
2017-12-12T21:47:08.068Z,81.46
2017-12-12T21:49:35.502Z,80.84
2017-12-12T21:52:02.908Z,81.21
2017-12-12T21:54:30.338Z,81.33
2017-12-12T21:56:57.749Z,81.08
2017-12-12T21:59:25.166Z,81.49
2017-12-12T22:01:52.573Z,81.16
2017-12-12T22:04:20.010Z,81.32
2017-12-12T22:06:47.425Z,81.41
2017-12-12T22:09:14.842Z,81.50
2017-12-12T22:11:42.262Z,81.58
2017-12-12T22:14:09.686Z,81.53
2017-12-12T22:16:37.363Z,81.13
2017-12-12T22:19:04.796Z,81.11
2017-12-12T22:21:32.213Z,80.87
2017-12-12T22:23:59.628Z,79.96
2017-12-12T22:26:27.045Z,79.86
2017-12-12T22:28:54.469Z,80.14
2017-12-12T22:31:21.901Z,80.20
2017-12-12T22:33:49.344Z,80.37
2017-12-12T22:36:16.767Z,79.22
2017-12-12T22:38:44.201Z,80.07
2017-12-12T22:41:11.628Z,79.97
2017-12-12T22:43:39.051Z,80.34
2017-12-12T22:46:06.465Z,80.57
2017-12-12T22:48:33.883Z,80.26
2017-12-12T22:51:01.302Z,80.27
2017-12-12T22:53:28.719Z,80.80
2017-12-12T22:55:56.150Z,81.01
2017-12-12T22:58:23.558Z,81.23
2017-12-12T23:00:51.557Z,81.52
2017-12-12T23:03:18.991Z,82.18
2017-12-12T23:05:46.405Z,81.99
2017-12-12T23:08:13.838Z,82.52
2017-12-12T23:10:41.629Z,82.43
2017-12-12T23:13:09.059Z,82.14
2017-12-12T23:15:36.480Z,82.46
2017-12-12T23:18:03.902Z,82.65
2017-12-12T23:20:31.325Z,82.97
2017-12-12T23:22:58.753Z,83.03
2017-12-12T23:25:26.179Z,82.90
2017-12-12T23:27:53.602Z,83.25
2017-12-12T23:30:21.038Z,83.23
2017-12-12T23:32:48.474Z,83.22
2017-12-12T23:35:15.886Z,83.72
2017-12-12T23:37:43.310Z,83.73
2017-12-12T23:40:10.746Z,84.05
2017-12-12T23:42:38.167Z,84.47
2017-12-12T23:45:05.583Z,84.72
2017-12-12T23:47:33.018Z,84.82
2017-12-12T23:50:00.440Z,85.00
2017-12-12T23:52:27.917Z,85.32
2017-12-12T23:54:55.279Z,85.26
2017-12-12T23:57:22.697Z,85.56
2017-12-12T23:59:50.125Z,85.82
